createdAt,value
2018-04-18T00:00:32.668Z,17.17
2018-04-18T00:01:32.684Z,16.96
2018-04-18T00:02:32.719Z,16.99
2018-04-18T00:03:32.739Z,16.93
2018-04-18T00:04:32.768Z,17.03
2018-04-18T00:05:32.782Z,17.04
2018-04-18T00:06:32.816Z,16.96
2018-04-18T00:07:32.831Z,16.96
2018-04-18T00:08:32.859Z,16.81
2018-04-18T00:09:32.883Z,16.88
2018-04-18T00:10:32.919Z,16.86
2018-04-18T00:11:32.925Z,16.85
2018-04-18T00:12:32.955Z,16.95
2018-04-18T00:13:32.979Z,17.00
2018-04-18T00:14:33.016Z,16.98
2018-04-18T00:15:33.023Z,16.93
2018-04-18T00:16:33.049Z,16.83
2018-04-18T00:17:33.076Z,17.04
2018-04-18T00:18:33.100Z,16.98
2018-04-18T00:19:33.125Z,16.95
2018-04-18T00:20:33.139Z,16.98
2018-04-18T00:21:33.164Z,16.96
2018-04-18T00:22:33.193Z,16.81
2018-04-18T00:23:33.211Z,16.92
2018-04-18T00:24:33.240Z,17.10
2018-04-18T00:25:33.282Z,17.03
2018-04-18T00:26:33.294Z,16.99
2018-04-18T00:27:33.305Z,17.07
2018-04-18T00:28:33.331Z,16.96
2018-04-18T00:29:33.361Z,16.98
2018-04-18T00:30:33.387Z,17.03
2018-04-18T00:31:33.399Z,16.93
2018-04-18T00:32:33.429Z,16.93
2018-04-18T00:33:33.449Z,16.92
2018-04-18T00:34:33.473Z,16.96
2018-04-18T00:35:33.503Z,16.88
2018-04-18T00:36:33.521Z,16.90
2018-04-18T00:37:33.546Z,16.93
2018-04-18T00:38:33.572Z,16.98
2018-04-18T00:39:33.593Z,16.80
2018-04-18T00:40:33.617Z,16.95
2018-04-18T00:41:33.641Z,16.80
2018-04-18T00:42:33.666Z,17.10
2018-04-18T00:43:33.681Z,17.03
2018-04-18T00:44:33.714Z,16.95
2018-04-18T00:45:33.737Z,16.92
2018-04-18T00:46:33.764Z,16.81
2018-04-18T00:47:33.786Z,16.85
2018-04-18T00:48:33.804Z,16.81
2018-04-18T00:49:33.839Z,16.81
2018-04-18T00:50:33.848Z,16.73
2018-04-18T00:51:33.877Z,16.73
2018-04-18T00:52:33.904Z,16.68
2018-04-18T00:53:33.924Z,16.73
2018-04-18T00:54:33.946Z,16.73
2018-04-18T00:55:33.969Z,16.53
2018-04-18T00:56:33.987Z,16.89
2018-04-18T00:57:34.012Z,16.88
2018-04-18T00:58:34.048Z,16.88
2018-04-18T00:59:34.068Z,16.70
2018-04-18T01:00:34.083Z,16.71
2018-04-18T01:01:34.133Z,17.07
2018-04-18T01:02:34.138Z,16.88
2018-04-18T01:03:34.190Z,16.73
2018-04-18T01:04:34.184Z,16.78
2018-04-18T01:05:34.212Z,16.71
2018-04-18T01:06:34.248Z,16.23
2018-04-18T01:07:34.268Z,16.22
2018-04-18T01:08:34.316Z,16.40
2018-04-18T01:09:34.305Z,16.20
2018-04-18T01:10:34.323Z,16.44
2018-04-18T01:11:34.350Z,16.65
2018-04-18T01:12:34.378Z,16.58
2018-04-18T01:13:34.391Z,16.34
2018-04-18T01:14:34.412Z,16.48
2018-04-18T01:15:34.450Z,16.55
2018-04-18T01:16:34.464Z,16.34
2018-04-18T01:17:34.504Z,16.07
2018-04-18T01:18:34.506Z,16.48
2018-04-18T01:19:34.534Z,16.63
2018-04-18T01:20:34.565Z,16.50
2018-04-18T01:21:34.596Z,16.30
2018-04-18T01:22:34.601Z,16.22
2018-04-18T01:23:34.626Z,16.16
2018-04-18T01:24:34.648Z,16.26
2018-04-18T01:25:34.673Z,16.14
2018-04-18T01:26:34.699Z,16.27
2018-04-18T01:27:34.732Z,15.99
2018-04-18T01:28:34.744Z,15.93
2018-04-18T01:29:34.768Z,15.92
2018-04-18T01:30:34.789Z,16.09
2018-04-18T01:31:34.837Z,15.84
2018-04-18T01:32:34.833Z,15.88
2018-04-18T01:33:34.881Z,15.89
2018-04-18T01:34:34.882Z,15.82
2018-04-18T01:35:34.907Z,15.94
2018-04-18T01:36:34.929Z,16.30
2018-04-18T01:37:34.951Z,16.41
2018-04-18T01:38:34.973Z,16.20
2018-04-18T01:39:34.995Z,16.25
2018-04-18T01:40:35.032Z,16.41
2018-04-18T01:41:35.040Z,16.34
2018-04-18T01:42:35.070Z,16.20
2018-04-18T01:43:35.092Z,16.25
2018-04-18T01:44:35.105Z,16.18
2018-04-18T01:45:35.130Z,15.89
2018-04-18T01:46:35.167Z,15.64
2018-04-18T01:47:35.173Z,15.81
2018-04-18T01:48:35.201Z,15.78
2018-04-18T01:49:35.223Z,15.76
2018-04-18T01:50:35.249Z,15.74
2018-04-18T01:51:35.264Z,16.20
2018-04-18T01:52:35.296Z,16.14
2018-04-18T01:53:35.315Z,16.33
2018-04-18T01:54:35.335Z,16.25
2018-04-18T01:55:35.370Z,16.35
2018-04-18T01:56:35.384Z,16.50
2018-04-18T01:57:35.405Z,16.26
2018-04-18T01:58:35.431Z,16.18
2018-04-18T01:59:35.457Z,15.84
2018-04-18T02:00:35.483Z,15.79
2018-04-18T02:01:35.499Z,15.66
2018-04-18T02:02:35.522Z,15.72
2018-04-18T02:03:35.547Z,15.64
2018-04-18T02:04:35.568Z,15.76
2018-04-18T02:05:35.591Z,15.76
2018-04-18T02:06:35.619Z,15.96
2018-04-18T02:07:35.690Z,15.99
2018-04-18T02:08:35.663Z,16.12
2018-04-18T02:09:35.687Z,15.94
2018-04-18T02:10:35.699Z,15.64
2018-04-18T02:11:35.722Z,15.52
2018-04-18T02:12:35.764Z,15.70
2018-04-18T02:13:35.778Z,15.89
2018-04-18T02:14:35.794Z,15.93
2018-04-18T02:15:35.813Z,16.06
2018-04-18T02:16:35.841Z,16.07
2018-04-18T02:17:35.892Z,16.01
2018-04-18T02:18:35.892Z,15.88
2018-04-18T02:19:35.902Z,15.67
2018-04-18T02:20:35.923Z,15.56
2018-04-18T02:21:36.003Z,15.74
2018-04-18T02:22:35.969Z,15.88
2018-04-18T02:23:35.993Z,15.93
2018-04-18T02:24:36.013Z,15.93
2018-04-18T02:25:36.041Z,15.94
2018-04-18T02:26:36.064Z,15.96
2018-04-18T02:27:36.090Z,16.04
2018-04-18T02:28:36.122Z,16.06
2018-04-18T02:29:36.134Z,15.92
2018-04-18T02:30:36.157Z,15.84
2018-04-18T02:31:36.186Z,15.92
2018-04-18T02:32:36.203Z,16.06
2018-04-18T02:33:36.217Z,15.81
2018-04-18T02:34:36.241Z,15.76
2018-04-18T02:35:36.273Z,15.78
2018-04-18T02:36:36.288Z,15.64
2018-04-18T02:37:36.339Z,15.60
2018-04-18T02:38:36.335Z,15.68
2018-04-18T02:39:36.390Z,15.96
2018-04-18T02:40:36.376Z,15.78
2018-04-18T02:41:36.398Z,15.74
2018-04-18T02:42:36.425Z,15.54
2018-04-18T02:43:36.446Z,15.68
2018-04-18T02:44:36.476Z,15.79
2018-04-18T02:45:36.487Z,15.68
2018-04-18T02:46:36.511Z,15.76
2018-04-18T02:47:36.535Z,15.81
2018-04-18T02:48:36.560Z,15.88
2018-04-18T02:49:36.585Z,15.64
2018-04-18T02:50:36.613Z,15.56
2018-04-18T02:51:36.629Z,15.72
2018-04-18T02:52:36.652Z,15.86
2018-04-18T02:53:36.670Z,15.54
2018-04-18T02:54:36.765Z,15.39
2018-04-18T02:55:36.723Z,15.48
2018-04-18T02:56:36.738Z,15.38
2018-04-18T02:57:36.763Z,15.38
2018-04-18T02:58:36.786Z,15.30
2018-04-18T02:59:36.815Z,15.26
2018-04-18T03:00:36.840Z,15.33
2018-04-18T03:01:36.913Z,15.45
2018-04-18T03:02:36.877Z,15.42
2018-04-18T03:03:36.896Z,15.57
2018-04-18T03:04:36.924Z,15.39
2018-04-18T03:05:36.967Z,15.43
2018-04-18T03:06:36.994Z,15.49
2018-04-18T03:07:37.003Z,15.57
2018-04-18T03:08:37.010Z,15.46
2018-04-18T03:09:37.038Z,15.46
2018-04-18T03:10:37.057Z,15.41
2018-04-18T03:11:37.085Z,15.56
2018-04-18T03:12:37.111Z,15.52
2018-04-18T03:13:37.135Z,15.54
2018-04-18T03:14:37.146Z,15.51
2018-04-18T03:15:37.167Z,15.59
2018-04-18T03:16:37.197Z,15.61
2018-04-18T03:17:37.210Z,15.59
2018-04-18T03:18:37.237Z,15.86
2018-04-18T03:19:37.259Z,15.96
2018-04-18T03:20:37.290Z,16.03
2018-04-18T03:21:37.304Z,16.04
2018-04-18T03:22:37.332Z,16.01
2018-04-18T03:23:37.353Z,15.84
2018-04-18T03:24:37.373Z,15.75
2018-04-18T03:25:37.393Z,15.81
2018-04-18T03:26:37.476Z,15.81
2018-04-18T03:27:37.441Z,15.81
2018-04-18T03:28:37.459Z,15.81
2018-04-18T03:29:37.490Z,15.76
2018-04-18T03:30:37.524Z,15.60
2018-04-18T03:31:37.643Z,15.66
2018-04-18T03:32:37.571Z,15.27
2018-04-18T03:33:37.609Z,15.12
2018-04-18T03:34:37.621Z,15.13
2018-04-18T03:35:37.632Z,15.27
2018-04-18T03:36:37.644Z,15.49
2018-04-18T03:37:37.665Z,15.61
2018-04-18T03:38:37.690Z,15.38
2018-04-18T03:39:37.709Z,15.31
2018-04-18T03:40:37.738Z,15.19
2018-04-18T03:41:37.754Z,15.24
2018-04-18T03:42:37.775Z,14.94
2018-04-18T03:43:37.805Z,15.15
2018-04-18T03:44:37.823Z,15.52
2018-04-18T03:45:37.846Z,15.39
2018-04-18T03:46:37.867Z,15.24
2018-04-18T03:47:37.887Z,15.23
2018-04-18T03:48:37.917Z,15.02
2018-04-18T03:49:37.942Z,14.83
2018-04-18T03:50:37.957Z,14.86
2018-04-18T03:51:37.976Z,14.91
2018-04-18T03:52:37.999Z,15.17
2018-04-18T03:53:38.021Z,15.21
2018-04-18T03:54:38.046Z,15.06
2018-04-18T03:55:38.066Z,15.03
2018-04-18T03:56:38.091Z,15.08
2018-04-18T03:57:38.104Z,15.06
2018-04-18T03:58:38.138Z,15.15
2018-04-18T03:59:38.161Z,15.02
2018-04-18T04:00:38.228Z,14.94
2018-04-18T04:01:38.212Z,14.87
2018-04-18T04:02:38.219Z,14.81
2018-04-18T04:03:38.251Z,14.80
2018-04-18T04:04:38.263Z,15.06
2018-04-18T04:05:38.286Z,15.23
2018-04-18T04:06:38.309Z,15.13
2018-04-18T04:07:38.340Z,14.98
2018-04-18T04:08:38.362Z,15.23
2018-04-18T04:09:38.599Z,15.17
2018-04-18T04:10:38.397Z,15.05
2018-04-18T04:11:38.433Z,15.30
2018-04-18T04:12:38.436Z,15.23
2018-04-18T04:13:38.467Z,15.15
2018-04-18T04:14:38.486Z,15.03
2018-04-18T04:15:38.510Z,15.26
2018-04-18T04:16:38.527Z,15.36
2018-04-18T04:17:38.560Z,15.54
2018-04-18T04:18:38.583Z,15.54
2018-04-18T04:19:38.608Z,15.49
2018-04-18T04:20:38.675Z,15.45
2018-04-18T04:21:38.643Z,15.38
2018-04-18T04:22:38.670Z,15.30
2018-04-18T04:23:38.681Z,15.41
2018-04-18T04:24:38.704Z,15.35
2018-04-18T04:25:38.727Z,15.38
2018-04-18T04:26:38.745Z,15.39
2018-04-18T04:27:38.772Z,15.45
2018-04-18T04:28:38.806Z,15.21
2018-04-18T04:29:38.835Z,15.31
2018-04-18T04:30:38.838Z,15.38
2018-04-18T04:31:38.873Z,15.39
2018-04-18T04:32:38.878Z,15.03
2018-04-18T04:33:38.905Z,15.35
2018-04-18T04:34:38.923Z,15.27
2018-04-18T04:35:38.952Z,15.21
2018-04-18T04:36:38.976Z,15.36
2018-04-18T04:37:39.026Z,15.17
2018-04-18T04:38:39.020Z,15.05
2018-04-18T04:39:39.030Z,14.93
2018-04-18T04:40:39.063Z,14.93
2018-04-18T04:41:39.093Z,14.81
2018-04-18T04:42:39.213Z,14.83
2018-04-18T04:43:39.133Z,14.65
2018-04-18T04:44:39.177Z,14.61
2018-04-18T04:45:39.189Z,14.84
2018-04-18T04:46:39.190Z,14.84
2018-04-18T04:47:39.213Z,14.75
2018-04-18T04:48:39.234Z,14.68
2018-04-18T04:49:39.281Z,14.90
2018-04-18T04:50:39.296Z,15.11
2018-04-18T04:51:39.320Z,15.19
2018-04-18T04:52:39.328Z,15.11
2018-04-18T04:53:39.345Z,15.17
2018-04-18T04:54:39.364Z,15.15
2018-04-18T04:55:39.394Z,14.81
2018-04-18T04:56:39.442Z,14.83
2018-04-18T04:57:39.499Z,14.71
2018-04-18T04:58:39.460Z,14.80
2018-04-18T04:59:39.481Z,14.78
2018-04-18T05:00:39.759Z,14.71
2018-04-18T05:01:39.681Z,14.74
2018-04-18T05:02:39.545Z,14.72
2018-04-18T05:03:39.564Z,14.93
2018-04-18T05:04:39.597Z,15.27
2018-04-18T05:05:39.608Z,15.26
2018-04-18T05:06:39.633Z,15.24
2018-04-18T05:07:39.653Z,15.06
2018-04-18T05:08:39.672Z,15.05
2018-04-18T05:09:39.691Z,15.17
2018-04-18T05:10:39.730Z,15.09
2018-04-18T05:11:39.752Z,15.17
2018-04-18T05:12:39.766Z,15.12
2018-04-18T05:13:39.795Z,15.06
2018-04-18T05:14:39.811Z,14.91
2018-04-18T05:15:39.831Z,15.35
2018-04-18T05:16:39.841Z,15.45
2018-04-18T05:17:39.875Z,15.45
2018-04-18T05:18:39.905Z,15.42
2018-04-18T05:19:39.911Z,15.46
2018-04-18T05:20:39.941Z,15.43
2018-04-18T05:21:39.967Z,15.31
2018-04-18T05:22:39.978Z,15.17
2018-04-18T05:23:39.999Z,15.56
2018-04-18T05:24:40.028Z,15.48
2018-04-18T05:25:40.067Z,15.45
2018-04-18T05:26:40.067Z,15.42
2018-04-18T05:27:40.096Z,15.15
2018-04-18T05:28:40.122Z,15.28
2018-04-18T05:29:40.131Z,15.28
2018-04-18T05:30:40.167Z,15.09
2018-04-18T05:31:40.182Z,15.21
2018-04-18T05:32:40.215Z,14.88
2018-04-18T05:33:40.224Z,14.91
2018-04-18T05:34:40.246Z,14.94
2018-04-18T05:35:40.314Z,14.90
2018-04-18T05:36:40.296Z,14.90
2018-04-18T05:37:40.315Z,15.13
2018-04-18T05:38:40.335Z,15.08
2018-04-18T05:39:40.367Z,15.15
2018-04-18T05:40:40.382Z,15.24
2018-04-18T05:41:40.397Z,14.94
2018-04-18T05:42:40.417Z,15.05
2018-04-18T05:43:40.451Z,15.19
2018-04-18T05:44:40.468Z,15.39
2018-04-18T05:45:40.485Z,15.36
2018-04-18T05:46:40.508Z,15.35
2018-04-18T05:47:40.533Z,15.31
2018-04-18T05:48:40.581Z,15.36
2018-04-18T05:49:40.573Z,15.51
2018-04-18T05:50:40.604Z,15.49
2018-04-18T05:51:40.616Z,15.48
2018-04-18T05:52:40.642Z,15.43
2018-04-18T05:53:40.663Z,15.35
2018-04-18T05:54:40.688Z,15.48
2018-04-18T05:55:40.748Z,15.46
2018-04-18T05:56:40.726Z,15.43
2018-04-18T05:57:40.841Z,15.56
2018-04-18T05:58:40.769Z,15.52
2018-04-18T05:59:40.811Z,15.48
2018-04-18T06:00:40.822Z,15.57
2018-04-18T06:01:40.842Z,15.67
2018-04-18T06:02:40.863Z,15.56
2018-04-18T06:03:40.886Z,15.63
2018-04-18T06:04:40.909Z,15.61
2018-04-18T06:05:40.928Z,15.70
2018-04-18T06:06:40.955Z,15.84
2018-04-18T06:07:40.985Z,15.79
2018-04-18T06:08:41.006Z,15.72
2018-04-18T06:09:41.027Z,15.78
2018-04-18T06:10:41.046Z,15.78
2018-04-18T06:11:41.080Z,15.88
2018-04-18T06:12:41.094Z,15.93
2018-04-18T06:13:41.110Z,15.89
2018-04-18T06:14:41.135Z,15.94
2018-04-18T06:15:41.180Z,15.89
2018-04-18T06:16:41.191Z,15.92
2018-04-18T06:17:41.199Z,16.04
2018-04-18T06:18:41.226Z,16.09
2018-04-18T06:19:41.242Z,16.01
2018-04-18T06:20:41.273Z,16.14
2018-04-18T06:21:41.294Z,16.03
2018-04-18T06:22:41.317Z,16.00
2018-04-18T06:23:41.367Z,16.09
2018-04-18T06:24:41.359Z,16.12
2018-04-18T06:25:41.384Z,16.16
2018-04-18T06:26:41.401Z,16.18
2018-04-18T06:27:41.427Z,16.14
2018-04-18T06:28:41.448Z,16.18
2018-04-18T06:29:41.480Z,16.23
2018-04-18T06:30:41.492Z,16.31
2018-04-18T06:31:41.519Z,16.49
2018-04-18T06:32:41.536Z,16.37
2018-04-18T06:33:41.617Z,16.44
2018-04-18T06:34:41.587Z,16.55
2018-04-18T06:35:41.615Z,16.55
2018-04-18T06:36:41.631Z,16.56
2018-04-18T06:37:41.653Z,16.55
2018-04-18T06:38:41.675Z,16.60
2018-04-18T06:39:41.711Z,16.65
2018-04-18T06:40:41.719Z,16.44
2018-04-18T06:41:41.740Z,16.56
2018-04-18T06:42:41.769Z,16.65
2018-04-18T06:43:41.785Z,16.68
2018-04-18T06:44:41.807Z,16.71
2018-04-18T06:45:41.838Z,16.68
2018-04-18T06:46:41.855Z,16.56
2018-04-18T06:47:41.878Z,16.70
2018-04-18T06:48:41.961Z,16.70
2018-04-18T06:49:41.948Z,16.58
2018-04-18T06:50:41.952Z,16.73
2018-04-18T06:51:41.977Z,16.68
2018-04-18T06:52:42.004Z,16.65
2018-04-18T06:53:42.015Z,16.73
2018-04-18T06:54:42.044Z,16.83
2018-04-18T06:55:42.066Z,16.95
2018-04-18T06:56:42.092Z,17.03
2018-04-18T06:57:42.135Z,17.15
2018-04-18T06:58:42.135Z,17.23
2018-04-18T06:59:42.165Z,17.11
2018-04-18T07:00:42.190Z,16.99
2018-04-18T07:01:42.202Z,17.07
2018-04-18T07:02:42.223Z,17.13
2018-04-18T07:03:42.255Z,17.22
2018-04-18T07:04:42.273Z,17.32
2018-04-18T07:05:42.291Z,17.17
2018-04-18T07:06:42.313Z,17.15
2018-04-18T07:07:42.341Z,17.29
2018-04-18T07:08:42.370Z,17.28
2018-04-18T07:09:42.391Z,17.18
2018-04-18T07:10:42.416Z,17.15
2018-04-18T07:11:42.430Z,17.33
2018-04-18T07:12:42.458Z,17.33
2018-04-18T07:13:42.481Z,17.26
2018-04-18T07:14:42.503Z,17.29
2018-04-18T07:15:42.530Z,17.33
2018-04-18T07:16:42.550Z,17.35
2018-04-18T07:17:42.577Z,17.32
2018-04-18T07:18:42.601Z,17.33
2018-04-18T07:19:42.624Z,17.51
2018-04-18T07:20:42.643Z,17.57
2018-04-18T07:21:42.695Z,17.43
2018-04-18T07:22:42.696Z,17.53
2018-04-18T07:23:42.758Z,17.57
2018-04-18T07:24:42.735Z,17.71
2018-04-18T07:25:42.758Z,17.57
2018-04-18T07:26:42.782Z,17.74
2018-04-18T07:27:42.836Z,17.73
2018-04-18T07:28:42.837Z,17.71
2018-04-18T07:29:42.849Z,17.74
2018-04-18T07:30:42.879Z,17.74
2018-04-18T07:31:42.900Z,17.82
2018-04-18T07:32:42.926Z,17.82
2018-04-18T07:33:42.947Z,17.97
2018-04-18T07:34:42.974Z,17.97
2018-04-18T07:35:42.994Z,18.00
2018-04-18T07:36:43.019Z,18.02
2018-04-18T07:37:43.069Z,18.13
2018-04-18T07:38:43.063Z,18.13
2018-04-18T07:39:43.090Z,18.19
2018-04-18T07:40:43.126Z,18.17
2018-04-18T07:41:43.136Z,18.21
2018-04-18T07:42:43.174Z,18.29
2018-04-18T07:43:43.184Z,18.31
2018-04-18T07:44:43.208Z,18.25
2018-04-18T07:45:43.232Z,18.31
2018-04-18T07:46:43.283Z,18.33
2018-04-18T07:47:43.312Z,18.37
2018-04-18T07:48:43.302Z,18.37
2018-04-18T07:49:43.371Z,18.43
2018-04-18T07:50:43.360Z,18.46
2018-04-18T07:51:43.379Z,18.59
2018-04-18T07:52:43.398Z,18.55
2018-04-18T07:53:43.420Z,18.58
2018-04-18T07:54:43.445Z,18.55
2018-04-18T07:55:43.475Z,18.55
2018-04-18T07:56:43.493Z,18.64
2018-04-18T07:57:43.525Z,18.62
2018-04-18T07:58:43.546Z,18.67
2018-04-18T07:59:43.565Z,18.74
2018-04-18T08:00:43.599Z,18.72
2018-04-18T08:01:43.615Z,18.72
2018-04-18T08:02:43.650Z,18.76
2018-04-18T08:03:43.663Z,18.74
2018-04-18T08:04:43.691Z,18.80
2018-04-18T08:05:43.711Z,18.76
2018-04-18T08:06:43.733Z,18.80
2018-04-18T08:07:43.761Z,18.80
2018-04-18T08:08:43.785Z,18.77
2018-04-18T08:09:43.805Z,18.79
2018-04-18T08:10:43.832Z,18.90
2018-04-18T08:11:43.856Z,18.98
2018-04-18T08:12:43.888Z,18.90
2018-04-18T08:13:43.897Z,18.94
2018-04-18T08:14:43.936Z,18.90
2018-04-18T08:15:43.946Z,19.05
2018-04-18T08:16:43.972Z,18.91
2018-04-18T08:17:44.005Z,19.05
2018-04-18T08:18:44.020Z,19.11
2018-04-18T08:19:44.050Z,19.20
2018-04-18T08:20:44.075Z,19.10
2018-04-18T08:21:44.101Z,19.10
2018-04-18T08:22:44.122Z,19.06
2018-04-18T08:23:44.146Z,19.08
2018-04-18T08:24:44.166Z,19.17
2018-04-18T08:25:44.196Z,19.20
2018-04-18T08:26:44.219Z,19.15
2018-04-18T08:27:44.243Z,19.21
2018-04-18T08:28:44.267Z,19.25
2018-04-18T08:29:44.295Z,19.28
2018-04-18T08:30:44.316Z,19.02
2018-04-18T08:31:44.347Z,19.23
2018-04-18T08:32:44.369Z,19.23
2018-04-18T08:33:44.388Z,19.38
2018-04-18T08:34:44.411Z,19.47
2018-04-18T08:35:44.440Z,19.50
2018-04-18T08:36:44.467Z,19.73
2018-04-18T08:37:44.494Z,19.78
2018-04-18T08:38:44.518Z,19.86
2018-04-18T08:39:44.539Z,19.76
2018-04-18T08:40:44.628Z,19.90
2018-04-18T08:41:44.584Z,19.78
2018-04-18T08:42:44.615Z,19.98
2018-04-18T08:43:44.636Z,19.95
2018-04-18T08:44:44.659Z,19.88
2018-04-18T08:45:44.698Z,19.87
2018-04-18T08:46:44.717Z,19.91
2018-04-18T08:47:44.741Z,20.00
2018-04-18T08:48:44.762Z,20.05
2018-04-18T08:49:44.789Z,20.06
2018-04-18T08:50:44.890Z,20.08
2018-04-18T08:51:44.891Z,20.27
2018-04-18T08:52:44.859Z,20.24
2018-04-18T08:53:44.907Z,20.23
2018-04-18T08:54:44.916Z,20.27
2018-04-18T08:55:44.937Z,20.38
2018-04-18T08:56:44.959Z,20.42
2018-04-18T08:57:44.984Z,20.31
2018-04-18T08:58:45.022Z,20.41
2018-04-18T08:59:45.040Z,20.42
2018-04-18T09:00:45.060Z,20.72
2018-04-18T09:01:45.090Z,20.53
2018-04-18T09:02:45.113Z,20.61
2018-04-18T09:03:45.142Z,20.54
2018-04-18T09:04:45.163Z,20.71
2018-04-18T09:05:45.185Z,20.68
2018-04-18T09:06:45.224Z,20.74
2018-04-18T09:07:45.239Z,20.69
2018-04-18T09:08:45.269Z,20.68
2018-04-18T09:09:45.331Z,20.64
2018-04-18T09:10:45.313Z,20.69
2018-04-18T09:11:45.333Z,20.69
2018-04-18T09:12:45.368Z,20.62
2018-04-18T09:13:45.399Z,20.72
2018-04-18T09:14:45.411Z,20.62
2018-04-18T09:15:45.489Z,20.68
2018-04-18T09:16:45.461Z,20.76
2018-04-18T09:17:45.503Z,20.84
2018-04-18T09:18:45.512Z,20.77
2018-04-18T09:19:45.540Z,20.86
2018-04-18T09:20:45.568Z,20.95
2018-04-18T09:21:45.599Z,20.99
2018-04-18T09:22:45.614Z,21.20
2018-04-18T09:23:45.655Z,21.26
2018-04-18T09:24:45.664Z,21.35
2018-04-18T09:25:45.691Z,21.39
2018-04-18T09:26:45.721Z,21.24
2018-04-18T09:27:45.746Z,21.63
2018-04-18T09:28:45.773Z,21.71
2018-04-18T09:29:45.821Z,21.57
2018-04-18T09:30:45.837Z,21.48
2018-04-18T09:31:45.849Z,21.51
2018-04-18T09:32:45.894Z,21.88
2018-04-18T09:33:45.896Z,21.75
2018-04-18T09:34:45.920Z,21.83
2018-04-18T09:35:45.966Z,22.06
2018-04-18T09:36:45.984Z,21.85
2018-04-18T09:37:46.000Z,21.75
2018-04-18T09:38:46.043Z,21.90
2018-04-18T09:39:46.066Z,21.74
2018-04-18T09:40:46.084Z,21.60
2018-04-18T09:41:46.106Z,21.67
2018-04-18T09:42:46.127Z,21.66
2018-04-18T09:43:46.157Z,21.63
2018-04-18T09:44:46.187Z,21.60
2018-04-18T09:45:46.209Z,21.61
2018-04-18T09:46:46.239Z,21.90
2018-04-18T09:47:46.257Z,21.99
2018-04-18T09:48:46.292Z,21.92
2018-04-18T09:49:46.314Z,21.91
2018-04-18T09:50:46.334Z,21.98
2018-04-18T09:51:46.362Z,21.90
2018-04-18T09:52:46.393Z,22.01
2018-04-18T09:53:46.421Z,22.04
2018-04-18T09:54:46.445Z,22.27
2018-04-18T09:55:46.477Z,22.27
2018-04-18T09:56:46.499Z,22.39
2018-04-18T09:57:46.543Z,22.29
2018-04-18T09:58:46.549Z,22.17
2018-04-18T09:59:46.585Z,22.14
2018-04-18T10:00:46.605Z,22.39
2018-04-18T10:01:46.625Z,22.28
2018-04-18T10:02:46.653Z,22.38
2018-04-18T10:03:46.683Z,22.47
2018-04-18T10:04:46.708Z,22.28
2018-04-18T10:05:46.751Z,22.43
2018-04-18T10:06:46.769Z,22.27
2018-04-18T10:07:46.787Z,22.49
2018-04-18T10:08:46.824Z,22.54
2018-04-18T10:09:46.849Z,22.65
2018-04-18T10:10:46.863Z,22.47
2018-04-18T10:11:46.898Z,22.44
2018-04-18T10:12:47.001Z,22.39
2018-04-18T10:13:46.949Z,22.77
2018-04-18T10:14:46.981Z,22.68
2018-04-18T10:15:46.998Z,22.59
2018-04-18T10:16:47.026Z,22.77
2018-04-18T10:17:47.060Z,22.82
2018-04-18T10:18:47.085Z,22.89
2018-04-18T10:19:47.135Z,22.90
2018-04-18T10:20:47.133Z,22.92
2018-04-18T10:21:47.169Z,22.65
2018-04-18T10:22:47.202Z,22.65
2018-04-18T10:23:47.218Z,22.54
2018-04-18T10:24:47.241Z,22.68
2018-04-18T10:25:47.274Z,22.56
2018-04-18T10:26:47.305Z,22.71
2018-04-18T10:27:47.336Z,22.60
2018-04-18T10:28:47.351Z,22.89
2018-04-18T10:29:47.379Z,23.12
2018-04-18T10:30:47.415Z,23.05
2018-04-18T10:31:47.424Z,22.97
2018-04-18T10:32:47.452Z,23.08
2018-04-18T10:33:47.486Z,22.90
2018-04-18T10:34:47.513Z,22.78
2018-04-18T10:35:47.535Z,22.77
2018-04-18T10:36:47.562Z,22.65
2018-04-18T10:37:47.605Z,22.53
2018-04-18T10:38:47.621Z,22.62
2018-04-18T10:39:47.645Z,22.86
2018-04-18T10:40:47.685Z,22.80
2018-04-18T10:41:47.700Z,22.82
2018-04-18T10:42:47.731Z,22.68
2018-04-18T10:43:47.761Z,22.69
2018-04-18T10:44:47.779Z,22.83
2018-04-18T10:45:47.807Z,22.83
2018-04-18T10:46:47.833Z,22.87
2018-04-18T10:47:47.868Z,22.78
2018-04-18T10:48:47.888Z,22.82
2018-04-18T10:49:47.954Z,22.82
2018-04-18T10:50:47.940Z,22.84
2018-04-18T10:51:47.967Z,22.80
2018-04-18T10:52:48.012Z,22.82
2018-04-18T10:53:48.032Z,22.99
2018-04-18T10:54:48.060Z,23.01
2018-04-18T10:55:48.093Z,23.02
2018-04-18T10:56:48.105Z,22.86
2018-04-18T10:57:48.134Z,23.01
2018-04-18T10:58:48.159Z,22.75
2018-04-18T10:59:48.193Z,22.68
2018-04-18T11:00:48.216Z,22.74
2018-04-18T11:01:48.239Z,22.74
2018-04-18T11:02:48.277Z,22.77
2018-04-18T11:03:48.307Z,23.01
2018-04-18T11:04:48.333Z,23.20
2018-04-18T11:05:48.380Z,23.17
2018-04-18T11:06:48.387Z,23.24
2018-04-18T11:07:48.440Z,23.31
2018-04-18T11:08:48.474Z,23.22
2018-04-18T11:09:48.466Z,23.32
2018-04-18T11:10:48.491Z,23.45
2018-04-18T11:11:48.516Z,23.53
2018-04-18T11:12:48.547Z,23.52
2018-04-18T11:13:48.573Z,23.42
2018-04-18T11:14:48.627Z,23.40
2018-04-18T11:15:48.628Z,23.45
2018-04-18T11:16:48.658Z,23.65
2018-04-18T11:17:48.684Z,23.58
2018-04-18T11:18:48.711Z,23.67
2018-04-18T11:19:48.735Z,23.57
2018-04-18T11:20:48.762Z,23.65
2018-04-18T11:21:48.788Z,23.87
2018-04-18T11:22:48.813Z,23.94
2018-04-18T11:23:48.844Z,23.79
2018-04-18T11:24:48.868Z,23.71
2018-04-18T11:25:48.897Z,23.82
2018-04-18T11:26:48.934Z,23.64
2018-04-18T11:27:48.949Z,23.64
2018-04-18T11:28:48.986Z,23.62
2018-04-18T11:29:49.012Z,23.89
2018-04-18T11:30:49.044Z,23.72
2018-04-18T11:31:49.064Z,23.92
2018-04-18T11:32:49.087Z,23.90
2018-04-18T11:33:49.127Z,24.05
2018-04-18T11:34:49.147Z,24.00
2018-04-18T11:35:49.178Z,23.87
2018-04-18T11:36:49.201Z,24.00
2018-04-18T11:37:49.235Z,23.98
2018-04-18T11:38:49.266Z,24.08
2018-04-18T11:39:49.324Z,24.04
2018-04-18T11:40:49.318Z,24.07
2018-04-18T11:41:49.339Z,24.12
2018-04-18T11:42:49.368Z,24.08
2018-04-18T11:43:49.402Z,24.16
2018-04-18T11:44:49.450Z,24.34
2018-04-18T11:45:49.454Z,24.31
2018-04-18T11:46:49.476Z,24.29
2018-04-18T11:47:49.511Z,24.29
2018-04-18T11:48:49.542Z,24.24
2018-04-18T11:49:49.564Z,24.23
2018-04-18T11:50:49.602Z,24.34
2018-04-18T11:51:49.658Z,24.29
2018-04-18T11:52:49.649Z,24.24
2018-04-18T11:53:49.677Z,24.20
2018-04-18T11:54:49.707Z,24.29
2018-04-18T11:55:49.733Z,24.61
2018-04-18T11:56:49.762Z,24.53
2018-04-18T11:57:49.818Z,24.71
2018-04-18T11:58:49.820Z,24.91
2018-04-18T11:59:49.848Z,24.75
2018-04-18T12:00:49.870Z,24.77
2018-04-18T12:01:49.910Z,24.64
2018-04-18T12:02:49.934Z,24.57
2018-04-18T12:03:49.957Z,24.64
2018-04-18T12:04:49.996Z,24.61
2018-04-18T12:05:50.013Z,24.63
2018-04-18T12:06:50.053Z,24.69
2018-04-18T12:07:50.072Z,24.94
2018-04-18T12:08:50.100Z,24.97
2018-04-18T12:09:50.127Z,24.92
2018-04-18T12:10:50.159Z,25.06
2018-04-18T12:11:50.187Z,25.00
2018-04-18T12:12:50.208Z,24.95
2018-04-18T12:13:50.241Z,25.01
2018-04-18T12:14:50.268Z,24.95
2018-04-18T12:15:50.294Z,25.10
2018-04-18T12:16:50.341Z,25.20
2018-04-18T12:17:50.355Z,25.19
2018-04-18T12:18:50.394Z,25.25
2018-04-18T12:19:50.411Z,25.02
2018-04-18T12:20:50.442Z,25.07
2018-04-18T12:21:50.469Z,25.31
2018-04-18T12:22:50.503Z,25.35
2018-04-18T12:23:50.530Z,25.34
2018-04-18T12:24:50.553Z,25.24
2018-04-18T12:25:50.585Z,25.32
2018-04-18T12:26:50.611Z,25.28
2018-04-18T12:27:50.654Z,25.35
2018-04-18T12:28:50.696Z,25.35
2018-04-18T12:29:50.695Z,25.37
2018-04-18T12:30:50.724Z,25.38
2018-04-18T12:31:50.753Z,25.38
2018-04-18T12:32:50.784Z,25.50
2018-04-18T12:33:50.810Z,25.59
2018-04-18T12:34:50.863Z,25.61
2018-04-18T12:35:50.870Z,25.62
2018-04-18T12:36:50.896Z,25.68
2018-04-18T12:37:50.960Z,25.72
2018-04-18T12:38:50.957Z,25.68
2018-04-18T12:39:50.982Z,25.72
2018-04-18T12:40:51.017Z,25.74
2018-04-18T12:41:51.086Z,25.80
2018-04-18T12:42:51.105Z,25.71
2018-04-18T12:43:51.103Z,25.79
2018-04-18T12:44:51.131Z,25.87
2018-04-18T12:45:51.159Z,26.02
2018-04-18T12:46:51.189Z,26.15
2018-04-18T12:47:51.223Z,26.08
2018-04-18T12:48:51.251Z,26.25
2018-04-18T12:49:51.275Z,26.37
2018-04-18T12:50:51.312Z,26.54
2018-04-18T12:51:51.338Z,26.49
2018-04-18T12:52:51.366Z,26.46